Time;durP1;ratioP1;P1;durP2;ratioP2;P2;SDS_P1;SDS_P2;PMS_P1;PMS_P2;Temp;Humidity;BMP_temperature;BMP_pressure;BME280_temperature;BME280_humidity;BME280_pressure;Samples;Min_cycle;Max_cycle;Signal;HPM_P1;HPM_P2
2021/04/07 00:00:18;;;;;;;3.22;2.95;;;;;;;4.36;59.08;99942.94;5083432;28;20083;-65
2021/04/07 00:02:44;;;;;;;3.35;3.08;;;;;;;4.07;60.31;99943.69;5079136;28;20477;-65
2021/04/07 00:05:14;;;;;;;3.83;3.38;;;;;;;4.43;59.57;99949.09;5069455;28;20127;-66
2021/04/07 00:07:40;;;;;;;3.53;3.22;;;;;;;4.22;59.28;99946.38;5070397;28;20027;-66
2021/04/07 00:10:08;;;;;;;4.47;4.07;;;;;;;4.51;58.67;99946.50;5068947;28;20028;-66
2021/04/07 00:12:34;;;;;;;4.22;3.80;;;;;;;4.30;59.47;99948.16;5071448;28;20032;-65
2021/04/07 00:14:59;;;;;;;5.05;3.35;;;;;;;4.30;59.56;99945.56;5068671;28;20119;-66
2021/04/07 00:17:25;;;;;;;3.88;3.30;;;;;;;4.30;59.90;99945.56;5059322;28;20037;-66
2021/04/07 00:19:50;;;;;;;4.28;3.90;;;;;;;4.22;60.56;99938.56;5077721;28;20031;-67
2021/04/07 00:22:15;;;;;;;4.68;4.18;;;;;;;4.34;60.58;99936.88;5070382;28;20020;-67
2021/04/07 00:24:41;;;;;;;4.22;3.83;;;;;;;4.59;60.40;99937.84;5070060;28;20032;-67
2021/04/07 00:27:10;;;;;;;5.05;4.28;;;;;;;4.64;59.10;99940.47;5071680;28;20021;-67
2021/04/07 00:29:36;;;;;;;4.40;4.00;;;;;;;4.83;58.01;99940.50;5069882;28;20029;-67
2021/04/07 00:32:01;;;;;;;5.45;4.95;;;;;;;4.93;58.70;99952.72;5070338;28;20024;-67
2021/04/07 00:34:26;;;;;;;5.00;4.60;;;;;;;4.69;59.71;99941.34;5071348;28;20024;-67
2021/04/07 00:36:51;;;;;;;4.65;4.25;;;;;;;4.47;59.52;99943.88;5071679;28;20110;-66
2021/04/07 00:39:17;;;;;;;4.82;4.32;;;;;;;4.29;59.78;99949.00;5071562;28;20074;-66
2021/04/07 00:41:42;;;;;;;5.10;4.28;;;;;;;4.19;60.49;99948.97;5071024;28;20070;-66
2021/04/07 00:44:08;;;;;;;5.20;4.70;;;;;;;4.34;59.90;99955.16;5071290;28;20479;-67
2021/04/07 00:46:35;;;;;;;4.93;4.38;;;;;;;4.22;60.37;99959.44;5071680;28;20033;-68
2021/04/07 00:49:00;;;;;;;6.93;4.57;;;;;;;4.15;60.89;99957.66;5070357;28;20050;-67
2021/04/07 00:51:26;;;;;;;6.65;4.47;;;;;;;4.37;59.62;99957.78;5070327;28;20142;-67
2021/04/07 00:53:51;;;;;;;4.75;4.35;;;;;;;4.67;59.19;99958.75;5075606;28;20043;-67
2021/04/07 00:56:16;;;;;;;9.18;4.85;;;;;;;4.53;58.95;99965.69;5073957;28;20028;-67
2021/04/07 00:58:42;;;;;;;7.68;4.95;;;;;;;4.38;59.49;99964.72;5073702;28;20537;-67
2021/04/07 01:01:07;;;;;;;7.28;5.00;;;;;;;4.49;59.14;99970.88;5073553;28;20388;-66
2021/04/07 01:03:32;;;;;;;5.25;4.63;;;;;;;4.23;60.24;99968.13;5073886;28;20028;-65
2021/04/07 01:05:57;;;;;;;5.88;4.90;;;;;;;4.49;59.62;99970.88;5074192;28;20029;-66
2021/04/07 01:08:23;;;;;;;6.65;4.70;;;;;;;4.38;59.97;99969.97;5073345;28;20025;-66
2021/04/07 01:11:18;;;;;;;5.40;4.90;;;;;;;4.18;60.90;99977.66;5073830;28;20426;-66
2021/04/07 01:13:44;;;;;;;4.72;4.22;;;;;;;4.45;60.52;99982.19;5074216;28;20480;-65
2021/04/07 01:16:09;;;;;;;5.70;4.53;;;;;;;4.18;60.42;99985.50;5074809;28;20100;-65
2021/04/07 01:18:35;;;;;;;5.75;5.13;;;;;;;4.36;60.09;99977.78;5073291;28;20039;-65
2021/04/07 01:21:00;;;;;;;7.25;4.97;;;;;;;4.08;60.98;99981.97;5072926;28;20056;-66
2021/04/07 01:23:27;;;;;;;6.80;4.90;;;;;;;4.41;59.60;99985.66;5075180;28;20471;-67
2021/04/07 01:25:52;;;;;;;6.43;4.93;;;;;;;4.35;59.99;99988.22;5073676;28;20028;-66
2021/04/07 01:28:18;;;;;;;6.63;5.68;;;;;;;4.41;60.86;99987.38;5074305;28;20566;-66
2021/04/07 01:30:46;;;;;;;6.03;4.55;;;;;;;4.07;61.35;99993.28;5072758;28;20517;-66
2021/04/07 01:33:24;;;;;;;7.18;5.22;;;;;;;4.27;60.00;99995.13;5055535;28;20404;-66
2021/04/07 01:35:50;;;;;;;5.13;4.22;;;;;;;4.24;60.82;99994.22;5073255;28;20107;-66
2021/04/07 01:38:16;;;;;;;5.70;5.10;;;;;;;4.01;61.16;99998.44;5073079;28;20028;-67
2021/04/07 01:40:42;;;;;;;5.43;4.45;;;;;;;4.18;60.22;99999.44;5073177;28;20033;-67
2021/04/07 01:43:09;;;;;;;6.35;5.22;;;;;;;4.74;60.61;100002.31;5073387;28;20256;-66
2021/04/07 01:45:34;;;;;;;5.03;4.63;;;;;;;4.66;59.44;100004.03;5086632;28;20142;-66
2021/04/07 01:48:00;;;;;;;4.68;4.28;;;;;;;4.62;60.38;99999.66;5060950;28;20108;-66
2021/04/07 01:50:26;;;;;;;6.45;4.57;;;;;;;4.89;58.03;100003.25;5073129;28;20086;-66
2021/04/07 01:52:51;;;;;;;5.93;4.90;;;;;;;4.39;60.50;100008.25;5072568;28;20032;-66
2021/04/07 01:55:16;;;;;;;4.90;4.40;;;;;;;4.45;61.00;100013.50;5073833;28;20032;-66
2021/04/07 01:57:41;;;;;;;5.90;5.07;;;;;;;4.53;59.42;100007.47;5074175;28;20040;-66
2021/04/07 02:00:09;;;;;;;6.68;5.20;;;;;;;4.56;60.51;100012.69;5074264;28;20129;-66
2021/04/07 02:02:35;;;;;;;5.22;4.78;;;;;;;4.58;59.35;100010.97;5073231;28;20020;-66
2021/04/07 02:05:00;;;;;;;7.45;5.53;;;;;;;4.39;60.79;100013.47;5073905;28;20093;-66
2021/04/07 02:07:25;;;;;;;5.35;4.68;;;;;;;4.79;59.96;100015.41;5072617;28;20438;-66
2021/04/07 02:09:50;;;;;;;5.10;4.55;;;;;;;4.27;61.00;100016.00;5073161;28;20060;-66
2021/04/07 02:12:16;;;;;;;5.43;4.57;;;;;;;4.53;60.51;100020.53;5073657;28;20044;-66
2021/04/07 02:14:41;;;;;;;7.72;5.15;;;;;;;4.77;59.09;100013.66;5073661;28;20044;-66
2021/04/07 02:17:06;;;;;;;5.10;4.60;;;;;;;4.80;59.03;100017.16;5070722;28;20026;-66
2021/04/07 02:19:34;;;;;;;6.60;5.10;;;;;;;4.65;59.90;100025.81;5072616;28;20477;-67
2021/04/07 02:22:07;;;;;;;6.45;4.85;;;;;;;4.80;58.81;100024.13;5072356;28;20024;-67
2021/04/07 02:24:34;;;;;;;7.40;5.10;;;;;;;4.72;58.27;100017.13;5073926;28;20056;-66
2021/04/07 02:27:18;;;;;;;6.43;4.57;;;;;;;4.93;58.87;100031.13;5073969;28;20090;-66
2021/04/07 02:29:46;;;;;;;4.90;4.28;;;;;;;4.58;58.87;100024.91;5072985;28;20115;-66
2021/04/07 02:32:11;;;;;;;5.70;5.15;;;;;;;4.72;58.80;100031.91;5071870;28;20031;-66
2021/04/07 02:34:37;;;;;;;4.75;4.35;;;;;;;4.80;58.38;100031.97;5072223;28;20036;-66
2021/04/07 02:37:03;;;;;;;6.18;5.25;;;;;;;4.82;58.93;100030.22;5071235;28;20103;-67
2021/04/07 02:39:28;;;;;;;6.97;4.88;;;;;;;4.88;58.86;100031.09;5071839;28;20123;-66
2021/04/07 02:41:54;;;;;;;7.30;4.95;;;;;;;5.01;58.70;100033.78;5073285;28;20039;-66
2021/04/07 02:44:20;;;;;;;6.20;5.07;;;;;;;4.75;58.44;100032.81;5071324;28;20022;-66
2021/04/07 02:46:45;;;;;;;5.55;5.05;;;;;;;5.08;58.59;100026.84;5071854;28;20089;-66
2021/04/07 02:49:11;;;;;;;7.32;6.28;;;;;;;4.97;58.05;100042.50;5073134;28;20429;-66
2021/04/07 02:51:36;;;;;;;6.55;5.82;;;;;;;4.78;59.11;100031.06;5072345;28;20442;-66
2021/04/07 02:54:02;;;;;;;10.55;5.13;;;;;;;4.99;58.70;100039.00;5071750;28;20028;-66
2021/04/07 02:56:31;;;;;;;7.68;5.97;;;;;;;5.21;58.09;100044.31;5050227;28;20472;-66
2021/04/07 02:58:57;;;;;;;7.53;6.53;;;;;;;5.09;58.84;100057.31;5077349;28;20108;-66
2021/04/07 03:01:22;;;;;;;6.80;5.57;;;;;;;5.14;58.60;100051.25;5074289;28;20074;-67
2021/04/07 03:03:48;;;;;;;7.30;5.97;;;;;;;5.24;57.51;100051.28;5072953;28;20492;-67
2021/04/07 03:06:13;;;;;;;5.93;5.00;;;;;;;4.83;59.56;100058.09;5071382;28;20383;-67
2021/04/07 03:08:38;;;;;;;7.32;5.55;;;;;;;4.29;60.94;100061.25;5072767;28;20056;-66
2021/04/07 03:11:04;;;;;;;6.22;5.22;;;;;;;4.38;61.18;100058.72;5072104;28;20471;-66
2021/04/07 03:13:29;;;;;;;7.63;5.68;;;;;;;4.78;60.59;100062.44;5071990;28;20044;-66
2021/04/07 03:15:54;;;;;;;6.60;5.63;;;;;;;4.51;59.97;100064.03;5071691;28;20039;-67
2021/04/07 03:18:20;;;;;;;6.25;5.40;;;;;;;4.62;59.99;100059.75;5072635;28;20051;-67
2021/04/07 03:20:45;;;;;;;6.82;5.68;;;;;;;4.96;59.25;100065.13;5054453;28;20028;-67
2021/04/07 03:23:11;;;;;;;7.68;5.63;;;;;;;4.54;59.77;100069.28;5071574;28;20028;-67
2021/04/07 03:25:36;;;;;;;6.75;5.28;;;;;;;4.36;60.58;100065.66;5072694;28;20058;-66
2021/04/07 03:28:01;;;;;;;7.13;5.72;;;;;;;4.71;59.50;100067.59;5071681;28;20528;-67
2021/04/07 03:30:27;;;;;;;7.03;5.85;;;;;;;4.89;58.58;100065.97;5072360;28;20024;-67
2021/04/07 03:32:52;;;;;;;6.68;5.53;;;;;;;4.74;60.12;100067.63;5070698;28;20151;-66
2021/04/07 03:35:17;;;;;;;6.53;5.03;;;;;;;4.43;59.52;100075.28;5072450;28;20116;-66
2021/04/07 03:37:42;;;;;;;6.22;5.57;;;;;;;3.96;63.80;100077.56;5071782;28;20032;-66
2021/04/07 03:40:08;;;;;;;5.53;4.72;;;;;;;3.81;63.71;100077.44;5071931;28;20035;-66
2021/04/07 03:42:34;;;;;;;4.80;4.38;;;;;;;4.12;61.54;100082.91;5070467;28;20046;-66
2021/04/07 03:44:59;;;;;;;6.03;4.13;;;;;;;4.54;59.29;100087.56;5071861;28;20484;-66
2021/04/07 03:47:24;;;;;;;8.10;3.50;;;;;;;4.52;58.50;100086.66;5071694;28;20452;-66
2021/04/07 03:49:50;;;;;;;5.43;3.10;;;;;;;4.77;57.92;100090.28;5070183;28;20055;-66
2021/04/07 03:52:15;;;;;;;8.98;4.13;;;;;;;4.75;57.91;100090.31;5071346;28;20472;-66
2021/04/07 03:54:43;;;;;;;4.05;2.88;;;;;;;4.50;59.18;100094.47;5071839;28;20115;-65
2021/04/07 03:57:08;;;;;;;7.00;2.83;;;;;;;4.73;58.97;100105.09;5071363;28;20380;-66
2021/04/07 03:59:33;;;;;;;4.43;2.92;;;;;;;5.07;58.36;100111.34;5071713;28;20031;-66
2021/04/07 04:01:58;;;;;;;6.78;4.38;;;;;;;4.83;59.15;100107.72;5071148;28;20024;-66
2021/04/07 04:04:24;;;;;;;6.32;4.05;;;;;;;4.81;59.87;100114.72;5078300;28;20032;-65
2021/04/07 04:06:49;;;;;;;8.38;5.53;;;;;;;4.96;58.58;100104.34;5071805;28;20497;-65
2021/04/07 04:09:15;;;;;;;5.55;4.60;;;;;;;4.51;59.79;100117.16;5073220;28;20033;-65
2021/04/07 04:11:40;;;;;;;5.63;4.38;;;;;;;4.85;58.94;100119.09;5070266;28;20491;-66
2021/04/07 04:14:06;;;;;;;7.22;5.05;;;;;;;4.82;58.41;100121.66;5071438;28;20028;-66
2021/04/07 04:16:31;;;;;;;7.10;5.20;;;;;;;4.85;58.99;100116.47;5071657;28;20032;-66
2021/04/07 04:18:56;;;;;;;5.85;4.68;;;;;;;4.79;59.14;100124.25;5070446;28;20470;-66
2021/04/07 04:21:21;;;;;;;5.38;4.88;;;;;;;5.17;58.04;100120.97;5080642;28;20036;-66
2021/04/07 04:23:47;;;;;;;6.68;4.57;;;;;;;4.85;57.52;100119.09;5071735;28;20024;-65
2021/04/07 04:26:12;;;;;;;5.07;4.57;;;;;;;4.58;57.90;100124.16;5067370;28;20557;-66
2021/04/07 04:28:38;;;;;;;5.53;5.03;;;;;;;4.45;59.71;100133.66;5070881;28;20390;-66
2021/04/07 04:31:03;;;;;;;5.78;5.18;;;;;;;4.35;59.51;100127.47;5070730;28;20113;-66
2021/04/07 04:33:28;;;;;;;6.72;5.50;;;;;;;4.07;60.17;100137.66;5069354;28;20294;-67
2021/04/07 04:35:58;;;;;;;4.95;4.45;;;;;;;3.98;59.90;100140.22;5069835;28;20030;-67
2021/04/07 04:38:26;;;;;;;9.02;6.80;;;;;;;3.63;61.59;100138.97;5071433;28;20052;-67
2021/04/07 04:40:51;;;;;;;6.95;5.35;;;;;;;3.85;60.87;100149.66;5069047;28;20017;-67
2021/04/07 04:43:17;;;;;;;8.30;6.40;;;;;;;4.13;60.36;100149.91;5069894;28;20027;-67
2021/04/07 04:45:42;;;;;;;7.10;5.80;;;;;;;4.18;61.29;100149.94;5068608;28;20032;-66
2021/04/07 04:48:08;;;;;;;5.97;5.38;;;;;;;3.97;61.28;100152.38;5070127;28;20029;-66
2021/04/07 04:50:33;;;;;;;7.63;6.10;;;;;;;4.27;60.12;100152.63;5070114;28;20024;-66
2021/04/07 04:52:59;;;;;;;6.00;5.38;;;;;;;4.40;59.10;100148.38;5070961;28;20056;-67
2021/04/07 04:55:24;;;;;;;6.10;5.30;;;;;;;4.00;60.62;100158.50;5072243;28;20060;-66
2021/04/07 04:57:50;;;;;;;6.75;5.93;;;;;;;4.24;60.48;100158.69;5070156;28;20035;-67
2021/04/07 05:00:15;;;;;;;5.95;5.15;;;;;;;4.62;59.01;100161.63;5069736;28;20033;-66
2021/04/07 05:02:40;;;;;;;6.68;5.45;;;;;;;4.28;59.01;100170.06;5068106;28;20025;-67
2021/04/07 05:05:06;;;;;;;5.85;5.22;;;;;;;4.32;59.91;100168.34;5071237;28;20056;-67
2021/04/07 05:07:32;;;;;;;6.40;5.47;;;;;;;4.35;59.84;100168.38;5070300;28;20024;-66
2021/04/07 05:09:57;;;;;;;8.20;5.88;;;;;;;4.13;59.46;100175.16;5070558;28;20037;-67
2021/04/07 05:12:22;;;;;;;8.05;5.65;;;;;;;4.28;58.91;100171.78;5070227;28;20383;-67
2021/04/07 05:14:50;;;;;;;5.88;5.15;;;;;;;3.90;60.49;100179.25;5070463;28;20499;-67
2021/04/07 05:17:16;;;;;;;7.00;5.40;;;;;;;4.38;59.44;100188.41;5070473;28;20039;-67
2021/04/07 05:19:41;;;;;;;6.25;5.38;;;;;;;4.49;58.50;100184.16;5069676;28;20032;-66
2021/04/07 05:22:07;;;;;;;8.15;5.53;;;;;;;4.73;58.79;100191.31;5069171;28;20029;-65
2021/04/07 05:24:32;;;;;;;8.43;5.70;;;;;;;4.67;58.16;100196.47;5070274;28;20025;-65
2021/04/07 05:26:58;;;;;;;7.43;5.85;;;;;;;4.57;60.03;100199.91;5070646;28;20063;-66
2021/04/07 05:29:24;;;;;;;6.50;5.35;;;;;;;4.58;58.77;100202.53;5070080;28;20028;-65
2021/04/07 05:31:49;;;;;;;7.80;6.18;;;;;;;4.62;59.32;100209.53;5069246;28;20024;-65
2021/04/07 05:34:14;;;;;;;9.90;6.68;;;;;;;4.98;58.44;100215.00;5070596;28;20056;-66
2021/04/07 05:36:40;;;;;;;13.75;6.38;;;;;;;4.95;59.02;100220.22;5070524;28;20321;-65
2021/04/07 05:39:05;;;;;;;7.47;6.18;;;;;;;4.85;57.96;100215.78;5071754;28;20025;-66
2021/04/07 05:41:30;;;;;;;8.75;6.97;;;;;;;5.39;57.41;100226.56;5072949;28;20104;-66
2021/04/07 05:43:57;;;;;;;6.78;6.05;;;;;;;4.60;59.13;100231.25;5056429;28;20062;-66
2021/04/07 05:46:22;;;;;;;8.20;6.20;;;;;;;5.14;57.85;100230.78;5074545;28;20434;-66
2021/04/07 05:48:48;;;;;;;6.70;5.78;;;;;;;5.38;58.24;100226.56;5073296;28;20115;-66
2021/04/07 05:51:14;;;;;;;5.68;5.05;;;;;;;5.38;57.18;100226.56;5074449;28;20042;-66
2021/04/07 05:53:39;;;;;;;7.20;6.50;;;;;;;5.32;58.38;100227.41;5072934;28;20062;-66
2021/04/07 05:56:05;;;;;;;7.05;5.47;;;;;;;5.83;56.20;100224.09;5074573;28;20021;-65
2021/04/07 05:58:30;;;;;;;5.82;5.07;;;;;;;6.32;55.23;100224.25;5073720;28;20472;-65
2021/04/07 06:00:56;;;;;;;7.25;4.80;;;;;;;7.26;52.71;100227.69;5070555;28;20502;-65
2021/04/07 06:03:21;;;;;;;4.47;4.07;;;;;;;8.04;50.98;100230.00;5067730;28;20509;-65
2021/04/07 06:05:48;;;;;;;4.95;4.53;;;;;;;10.16;46.04;100232.28;5069825;28;20084;-65
2021/04/07 06:08:14;;;;;;;5.85;3.97;;;;;;;10.70;43.71;100230.66;5069218;28;20025;-66
2021/04/07 06:10:41;;;;;;;5.13;4.03;;;;;;;9.37;46.00;100235.94;5069648;28;20391;-66
2021/04/07 06:13:07;;;;;;;4.05;3.65;;;;;;;8.49;48.17;100234.94;5069022;28;20020;-65
2021/04/07 06:15:32;;;;;;;6.28;3.88;;;;;;;8.18;49.18;100250.94;5068168;28;20028;-65
2021/04/07 06:18:06;;;;;;;5.60;3.90;;;;;;;7.85;48.59;100253.72;5069449;28;20032;-65
2021/04/07 06:20:37;;;;;;;5.38;4.65;;;;;;;7.89;50.19;100254.56;5070846;28;20502;-65
2021/04/07 06:23:04;;;;;;;10.77;4.53;;;;;;;7.67;50.41;100255.53;5055440;28;20112;-65
2021/04/07 06:25:30;;;;;;;6.25;4.45;;;;;;;7.81;51.29;100249.38;5072887;28;20028;-66
2021/04/07 06:27:57;;;;;;;7.00;4.75;;;;;;;10.37;45.51;100245.16;5052319;28;20518;-66
2021/04/07 06:30:40;;;;;;;5.18;4.30;;;;;;;12.00;41.34;100247.53;5052145;28;20029;-66
2021/04/07 06:33:07;;;;;;;4.35;3.80;;;;;;;13.06;39.04;100252.97;5068880;28;20075;-66
2021/04/07 06:35:33;;;;;;;5.05;4.38;;;;;;;16.13;33.52;100252.94;5051585;28;20685;-66
2021/04/07 06:37:59;;;;;;;4.30;3.90;;;;;;;14.05;36.86;100261.75;5083386;28;20095;-66
2021/04/07 06:40:24;;;;;;;7.60;3.85;;;;;;;13.00;39.50;100272.53;5105964;28;20107;-67
2021/04/07 06:42:50;;;;;;;5.75;4.32;;;;;;;10.87;41.73;100276.06;5058912;28;20116;-66
2021/04/07 06:45:16;;;;;;;5.43;3.70;;;;;;;9.48;45.06;100274.44;5049036;28;20029;-66
2021/04/07 06:47:41;;;;;;;7.18;4.00;;;;;;;9.03;47.19;100273.09;5050274;28;20024;-66
2021/04/07 06:50:07;;;;;;;5.88;4.00;;;;;;;9.32;44.98;100279.84;5048995;28;20032;-66
2021/04/07 06:52:32;;;;;;;6.72;4.45;;;;;;;8.54;47.21;100274.38;5048299;28;20029;-66
2021/04/07 06:54:58;;;;;;;6.57;4.32;;;;;;;8.59;46.50;100278.72;5042894;28;20032;-65
2021/04/07 06:57:23;;;;;;;6.82;4.28;;;;;;;8.57;46.45;100279.63;5069675;28;20058;-66
2021/04/07 06:59:49;;;;;;;7.15;4.80;;;;;;;8.79;45.74;100279.44;5068168;28;20107;-65
2021/04/07 07:02:15;;;;;;;9.73;4.90;;;;;;;9.74;44.80;100289.06;5069327;28;20024;-66
2021/04/07 07:04:40;;;;;;;8.63;3.58;;;;;;;9.84;43.66;100287.19;5068261;28;20044;-65
2021/04/07 07:07:07;;;;;;;4.47;3.38;;;;;;;14.98;35.71;100281.88;5068549;28;20063;-65
2021/04/07 07:09:33;;;;;;;6.88;3.33;;;;;;;17.63;30.60;100286.75;5051414;28;20028;-66
2021/04/07 07:11:59;;;;;;;9.63;3.28;;;;;;;18.02;29.42;100285.88;5084815;28;20032;-66
2021/04/07 07:14:24;;;;;;;4.95;3.10;;;;;;;16.38;31.62;100284.78;5069125;28;20029;-66
2021/04/07 07:16:51;;;;;;;7.30;3.83;;;;;;;14.57;34.82;100284.94;5050146;28;20032;-66
2021/04/07 07:19:24;;;;;;;6.07;3.33;;;;;;;13.36;36.41;100290.16;5064789;28;20056;-66
2021/04/07 07:21:52;;;;;;;5.03;3.35;;;;;;;14.94;33.73;100282.91;5065037;28;20039;-66
2021/04/07 07:24:38;;;;;;;5.10;3.22;;;;;;;19.93;27.51;100293.34;5064647;28;20078;-67
2021/04/07 07:27:06;;;;;;;6.40;2.60;;;;;;;20.40;25.92;100304.19;5084201;28;20032;-66
2021/04/07 07:29:34;;;;;;;3.33;2.33;;;;;;;18.20;28.00;100304.66;5069063;28;20032;-66
2021/04/07 07:32:11;;;;;;;4.38;3.00;;;;;;;18.80;28.61;100295.53;5067218;28;20535;-67
2021/04/07 07:34:36;;;;;;;3.90;2.63;;;;;;;15.48;31.26;100301.41;5048354;28;20041;-66
2021/04/07 07:37:04;;;;;;;3.83;2.47;;;;;;;14.14;33.12;100297.75;5056204;28;20552;-66
2021/04/07 07:39:35;;;;;;;3.58;2.45;;;;;;;15.23;32.74;100304.91;5069085;28;20387;-66
2021/04/07 07:42:03;;;;;;;6.07;2.97;;;;;;;13.46;34.78;100307.56;5067476;28;20044;-66
2021/04/07 07:44:30;;;;;;;5.53;2.97;;;;;;;19.05;28.26;100297.00;5060671;28;20025;-66
2021/04/07 07:47:02;;;;;;;5.40;2.58;;;;;;;21.95;24.15;100301.41;5066809;28;20517;-66
2021/04/07 07:49:27;;;;;;;4.68;2.60;;;;;;;19.41;26.42;100313.06;5067224;28;20032;-66
2021/04/07 07:51:53;;;;;;;5.90;3.63;;;;;;;17.54;28.59;100312.88;5047536;28;20025;-65
2021/04/07 07:54:20;;;;;;;4.43;3.20;;;;;;;20.55;24.37;100321.25;5049717;28;20029;-67
2021/04/07 07:56:46;;;;;;;4.95;2.75;;;;;;;18.91;27.13;100328.88;5049304;28;20043;-67
2021/04/07 07:59:11;;;;;;;3.60;2.40;;;;;;;18.81;25.73;100321.31;5065292;28;20032;-66
2021/04/07 08:01:55;;;;;;;8.10;3.20;;;;;;;22.18;23.41;100329.47;5050319;28;20027;-67
2021/04/07 08:04:20;;;;;;;4.95;2.75;;;;;;;20.56;24.01;100327.44;5063261;28;20375;-67
2021/04/07 08:06:46;;;;;;;5.43;2.55;;;;;;;22.43;22.79;100325.22;5067470;28;20534;-68
2021/04/07 08:09:12;;;;;;;5.63;2.33;;;;;;;23.38;21.93;100326.25;5084736;28;20035;-67
2021/04/07 08:11:37;;;;;;;3.83;3.03;;;;;;;23.33;21.36;100325.66;5066045;28;20411;-67
2021/04/07 08:14:03;;;;;;;3.42;2.00;;;;;;;24.26;20.85;100330.94;5056016;28;20508;-67
2021/04/07 08:16:31;;;;;;;4.72;2.10;;;;;;;23.52;20.56;100327.09;5070893;28;20459;-67
2021/04/07 08:18:56;;;;;;;5.82;2.28;;;;;;;24.09;20.74;100341.94;5083748;28;20060;-67
2021/04/07 08:21:23;;;;;;;4.25;2.00;;;;;;;24.63;19.75;100322.84;5082470;28;20484;-69
2021/04/07 08:23:54;;;;;;;5.63;2.53;;;;;;;23.90;21.05;100328.91;5055772;28;20029;-68
2021/04/07 08:26:21;;;;;;;4.82;2.40;;;;;;;24.78;20.64;100330.75;5067177;28;20025;-68
2021/04/07 08:28:46;;;;;;;7.05;1.95;;;;;;;24.70;20.12;100334.88;5054736;28;20080;-70
2021/04/07 08:31:17;;;;;;;2.17;1.98;;;;;;;24.33;20.39;100340.28;5066523;28;20119;-69
2021/04/07 08:33:52;;;;;;;6.53;2.22;;;;;;;23.77;19.83;100330.78;5073356;28;20054;-68
2021/04/07 08:36:18;;;;;;;5.03;1.70;;;;;;;24.28;20.71;100337.09;5085719;28;20476;-68
2021/04/07 08:38:44;;;;;;;4.18;2.38;;;;;;;23.30;20.73;100339.28;5070431;28;20137;-68
2021/04/07 08:41:11;;;;;;;3.22;2.15;;;;;;;24.44;19.75;100339.53;5070801;28;20132;-69
2021/04/07 08:43:37;;;;;;;3.10;2.80;;;;;;;25.58;18.71;100340.03;5070178;28;20472;-68
2021/04/07 08:46:17;;;;;;;4.47;2.33;;;;;;;23.49;20.12;100336.25;5035517;28;20025;-69
2021/04/07 08:48:42;;;;;;;3.67;2.42;;;;;;;23.82;20.12;100339.38;5050231;28;20049;-69
2021/04/07 08:51:10;;;;;;;3.40;2.28;;;;;;;24.38;18.92;100342.66;5051198;28;20048;-69
2021/04/07 08:53:44;;;;;;;5.32;2.65;;;;;;;24.74;18.30;100338.19;5059830;28;20078;-70
2021/04/07 08:56:11;;;;;;;3.17;2.50;;;;;;;24.20;19.44;100351.97;5077651;28;20024;-69
2021/04/07 08:58:50;;;;;;;3.55;2.40;;;;;;;25.31;19.35;100351.13;5107099;28;20053;-68
2021/04/07 09:01:34;;;;;;;4.05;2.67;;;;;;;26.49;17.59;100351.84;5071325;28;20021;-70
2021/04/07 09:04:10;;;;;;;5.10;2.95;;;;;;;27.07;17.59;100349.88;5071409;28;20086;-70
2021/04/07 09:06:41;;;;;;;7.07;3.42;;;;;;;26.84;17.71;100360.75;5071150;28;20030;-69
2021/04/07 09:09:07;;;;;;;6.15;3.13;;;;;;;24.71;19.15;100355.47;5069961;28;20475;-68
2021/04/07 09:11:38;;;;;;;5.10;3.15;;;;;;;20.32;22.44;100362.69;5075815;28;20024;-67
2021/04/07 09:14:05;;;;;;;4.85;3.55;;;;;;;22.40;20.88;100352.28;5048957;28;20029;-68
2021/04/07 09:16:39;;;;;;;4.47;3.13;;;;;;;22.88;20.67;100351.03;5052605;28;20021;-68
2021/04/07 09:19:22;;;;;;;4.70;3.40;;;;;;;18.87;22.39;100365.56;5070123;28;20075;-67
2021/04/07 09:21:56;;;;;;;3.97;3.58;;;;;;;19.43;24.75;100360.16;5087191;28;20150;-68
2021/04/07 09:24:24;;;;;;;4.50;4.00;;;;;;;21.13;22.73;100353.69;5071701;28;20036;-68
2021/04/07 09:26:50;;;;;;;6.45;4.18;;;;;;;24.26;20.61;100366.81;5069756;28;20582;-66
2021/04/07 09:29:16;;;;;;;5.05;4.20;;;;;;;25.24;18.52;100364.19;5069844;28;20037;-67
2021/04/07 09:31:41;;;;;;;4.57;3.95;;;;;;;25.89;17.76;100361.06;5071174;28;20052;-67
2021/04/07 09:34:09;;;;;;;5.75;4.57;;;;;;;21.98;20.37;100364.78;5061852;28;20063;-67
2021/04/07 09:36:42;;;;;;;4.78;4.15;;;;;;;22.54;19.69;100377.41;5072433;28;20120;-67
2021/04/07 09:39:12;;;;;;;7.00;4.30;;;;;;;24.70;18.43;100363.69;5074483;28;20073;-67
2021/04/07 09:41:42;;;;;;;4.90;3.63;;;;;;;26.26;18.34;100355.41;5073539;28;20020;-68
2021/04/07 09:44:09;;;;;;;5.05;4.13;;;;;;;26.38;18.06;100361.69;5074101;28;20059;-66
2021/04/07 09:46:35;;;;;;;5.85;3.88;;;;;;;26.02;17.44;100350.16;5090430;28;20028;-68
2021/04/07 09:49:27;;;;;;;4.63;3.40;;;;;;;26.47;17.73;100356.53;5074608;28;20024;-67
2021/04/07 09:51:53;;;;;;;5.32;3.00;;;;;;;26.26;16.78;100366.22;5071208;28;20040;-68
2021/04/07 09:54:26;;;;;;;4.90;3.15;;;;;;;26.33;16.54;100377.44;5072745;28;20029;-67
2021/04/07 09:56:55;;;;;;;4.63;3.38;;;;;;;25.23;17.98;100363.34;5072710;28;20020;-69
2021/04/07 09:59:40;;;;;;;3.58;2.95;;;;;;;22.64;20.04;100361.59;5072869;28;20061;-67
2021/04/07 10:02:29;;;;;;;4.03;3.17;;;;;;;22.31;20.42;100366.31;5072452;28;20020;-67
2021/04/07 10:04:56;;;;;;;4.90;3.28;;;;;;;19.35;22.09;100357.88;5072420;28;20045;-68
2021/04/07 10:07:23;;;;;;;4.28;3.15;;;;;;;18.96;23.74;100369.59;5069758;28;20032;-68
2021/04/07 10:09:56;;;;;;;3.63;3.20;;;;;;;19.41;23.54;100356.69;5062014;28;20471;-69
2021/04/07 10:12:23;;;;;;;4.82;3.45;;;;;;;20.03;23.03;100366.00;5072992;28;20025;-67
2021/04/07 10:14:59;;;;;;;3.20;2.90;;;;;;;20.36;23.21;100362.44;5076053;28;20056;-67
2021/04/07 10:17:26;;;;;;;3.70;2.97;;;;;;;20.71;22.71;100358.72;5072167;28;20499;-66
2021/04/07 10:19:51;;;;;;;4.25;3.55;;;;;;;20.29;22.36;100361.03;5070984;28;20556;-67
2021/04/07 10:22:25;;;;;;;8.48;3.47;;;;;;;19.86;24.00;100367.75;5073396;28;20024;-67
2021/04/07 10:24:55;;;;;;;4.78;3.22;;;;;;;17.73;24.93;100369.88;5071407;28;20036;-67
2021/04/07 10:27:21;;;;;;;8.30;3.55;;;;;;;17.90;25.74;100363.78;5070165;28;20034;-67
2021/04/07 10:29:48;;;;;;;4.25;3.85;;;;;;;16.90;26.83;100370.63;5056622;28;20028;-68
2021/04/07 10:32:18;;;;;;;3.45;3.15;;;;;;;17.61;25.95;100368.63;5069684;28;20028;-66
2021/04/07 10:34:45;;;;;;;3.85;3.40;;;;;;;16.50;26.87;100373.94;5069143;28;20388;-67
2021/04/07 10:37:12;;;;;;;3.83;3.08;;;;;;;16.82;26.96;100367.41;5069445;28;20033;-66
2021/04/07 10:39:42;;;;;;;4.35;3.75;;;;;;;18.40;26.67;100369.56;5067752;28;20017;-66
2021/04/07 10:42:09;;;;;;;3.77;3.10;;;;;;;18.74;23.86;100370.63;5070154;28;20020;-67
2021/04/07 10:44:35;;;;;;;5.35;3.70;;;;;;;20.60;23.77;100380.75;5065544;28;20036;-66
2021/04/07 10:47:01;;;;;;;6.75;3.90;;;;;;;21.21;22.09;100360.41;5053757;28;20028;-68
2021/04/07 10:49:27;;;;;;;4.20;3.40;;;;;;;19.50;22.96;100360.69;5052120;28;20043;-67
2021/04/07 10:52:00;;;;;;;8.00;4.20;;;;;;;17.37;25.37;100364.28;5051612;28;20028;-66
2021/04/07 10:54:26;;;;;;;5.28;2.92;;;;;;;19.73;23.39;100372.00;5067493;28;20028;-66
2021/04/07 10:57:01;;;;;;;4.97;3.72;;;;;;;18.98;23.87;100370.41;5069887;28;20020;-66
2021/04/07 10:59:27;;;;;;;3.95;3.28;;;;;;;18.81;24.35;100369.41;5070040;28;20248;-68
2021/04/07 11:01:53;;;;;;;3.95;3.22;;;;;;;18.62;24.89;100368.56;5068494;28;20184;-68
2021/04/07 11:04:18;;;;;;;5.45;3.58;;;;;;;16.21;26.78;100375.91;5052040;28;20032;-68
2021/04/07 11:06:44;;;;;;;4.78;3.67;;;;;;;15.26;28.66;100364.16;5067320;28;20028;-68
2021/04/07 11:09:16;;;;;;;4.75;3.90;;;;;;;14.56;29.47;100378.72;5068526;28;20503;-69
2021/04/07 11:11:42;;;;;;;3.50;3.15;;;;;;;14.09;30.08;100374.78;5068323;28;20570;-67
2021/04/07 11:14:11;;;;;;;3.78;3.28;;;;;;;13.79;30.28;100372.06;5069781;28;20032;-69
2021/04/07 11:16:36;;;;;;;4.30;3.20;;;;;;;13.72;31.38;100381.97;5070730;28;20119;-67
2021/04/07 11:19:16;;;;;;;6.00;3.17;;;;;;;13.26;31.49;100384.00;5072621;28;20063;-69
2021/04/07 11:21:42;;;;;;;5.82;3.08;;;;;;;13.40;31.89;100381.88;5087570;28;20048;-67
2021/04/07 11:24:08;;;;;;;4.57;3.35;;;;;;;13.37;32.18;100381.09;5070770;28;20495;-68
2021/04/07 11:26:33;;;;;;;5.90;3.20;;;;;;;13.13;32.20;100378.13;5071294;28;20036;-68
2021/04/07 11:28:58;;;;;;;4.13;3.22;;;;;;;13.28;32.73;100375.13;5071363;28;20020;-68
2021/04/07 11:31:27;;;;;;;4.88;3.60;;;;;;;13.36;31.90;100380.22;5071241;28;20089;-69